createdAt,value
2018-07-12T00:00:42.578Z,15.93
2018-07-12T00:03:10.307Z,15.40
2018-07-12T00:05:37.960Z,15.57
2018-07-12T00:08:05.666Z,14.87
2018-07-12T00:10:33.350Z,16.10
2018-07-12T00:13:01.041Z,15.50
2018-07-12T00:15:29.617Z,16.53
2018-07-12T00:17:57.317Z,16.87
2018-07-12T00:20:25.007Z,18.17
2018-07-12T00:22:52.982Z,18.90
2018-07-12T00:25:20.577Z,19.43
2018-07-12T00:27:48.275Z,21.63
2018-07-12T00:30:16.286Z,23.40
2018-07-12T00:32:43.979Z,24.20
2018-07-12T00:35:11.678Z,24.73
2018-07-12T00:37:39.393Z,24.70
2018-07-12T00:40:07.093Z,26.47
2018-07-12T00:42:34.800Z,27.47
2018-07-12T00:45:02.594Z,26.70
2018-07-12T00:47:30.263Z,26.97
2018-07-12T00:49:57.953Z,27.80
2018-07-12T00:52:25.659Z,26.90
2018-07-12T00:54:53.381Z,27.17
2018-07-12T00:57:21.074Z,29.83
2018-07-12T00:59:48.766Z,30.77
2018-07-12T01:02:16.463Z,31.20
2018-07-12T01:04:44.157Z,33.30
2018-07-12T01:07:11.887Z,31.90
2018-07-12T01:09:39.584Z,32.07
2018-07-12T01:12:07.318Z,34.03
2018-07-12T01:14:35.011Z,32.47
2018-07-12T01:17:02.713Z,34.70
2018-07-12T01:19:30.412Z,31.73
2018-07-12T01:21:58.116Z,31.03
2018-07-12T01:24:25.820Z,32.63
2018-07-12T01:26:53.527Z,31.90
2018-07-12T01:29:21.239Z,31.67
2018-07-12T01:31:48.951Z,33.10
2018-07-12T01:34:16.690Z,32.93
2018-07-12T01:36:44.386Z,32.67
2018-07-12T01:39:12.101Z,33.07
2018-07-12T01:41:39.803Z,34.20
2018-07-12T01:44:07.509Z,32.90
2018-07-12T01:46:36.008Z,32.77
2018-07-12T01:49:03.789Z,33.13
2018-07-12T01:51:33.642Z,35.33
2018-07-12T01:54:01.324Z,33.73
2018-07-12T01:56:29.044Z,34.03
2018-07-12T01:58:56.783Z,34.80
2018-07-12T02:01:24.476Z,35.13
2018-07-12T02:03:52.204Z,36.20
2018-07-12T02:06:19.900Z,34.47
2018-07-12T02:17:39.507Z,34.53
2018-07-12T02:20:07.272Z,34.47
2018-07-12T02:22:34.962Z,33.60
2018-07-12T02:25:02.677Z,33.47
2018-07-12T02:27:30.419Z,33.50
2018-07-12T02:29:58.118Z,32.30
2018-07-12T02:32:26.216Z,31.47
2018-07-12T02:34:53.848Z,31.57
2018-07-12T02:37:21.951Z,30.20
2018-07-12T02:39:49.568Z,30.63
2018-07-12T02:42:17.268Z,29.80
2018-07-12T02:44:44.972Z,29.33
2018-07-12T02:47:12.655Z,27.40
2018-07-12T02:49:40.361Z,29.27
2018-07-12T02:52:08.061Z,29.13
2018-07-12T02:54:35.760Z,30.33
2018-07-12T02:57:03.456Z,29.60
2018-07-12T02:59:31.156Z,30.80
2018-07-12T03:01:58.865Z,31.67
2018-07-12T03:04:26.578Z,30.93
2018-07-12T03:06:54.299Z,29.43
2018-07-12T03:09:22.007Z,29.23
2018-07-12T03:11:49.714Z,28.70
2018-07-12T03:14:17.399Z,30.17
2018-07-12T03:16:45.109Z,28.60
2018-07-12T03:19:12.809Z,27.53
2018-07-12T03:21:40.535Z,28.93
2018-07-12T03:24:08.229Z,27.30
2018-07-12T03:26:35.926Z,29.90
2018-07-12T03:29:03.618Z,28.93
2018-07-12T03:31:31.328Z,29.03
2018-07-12T03:33:59.020Z,29.60
2018-07-12T03:36:26.718Z,28.87
2018-07-12T03:38:54.416Z,28.03
2018-07-12T03:41:22.130Z,28.10
2018-07-12T03:43:49.892Z,27.03
2018-07-12T03:46:17.613Z,25.57
2018-07-12T03:48:45.584Z,26.63
2018-07-12T03:51:13.283Z,26.03
2018-07-12T03:53:40.988Z,28.50
2018-07-12T03:56:08.688Z,26.63
2018-07-12T03:58:36.388Z,27.23
2018-07-12T04:01:04.101Z,26.60
2018-07-12T04:03:31.817Z,25.00
2018-07-12T04:05:59.507Z,22.63
2018-07-12T04:08:27.200Z,24.23
2018-07-12T04:10:54.917Z,22.43
2018-07-12T04:13:22.601Z,20.70
2018-07-12T04:15:50.286Z,20.93
2018-07-12T04:18:18.076Z,19.90
2018-07-12T04:20:45.763Z,17.83
2018-07-12T04:23:13.488Z,17.13
2018-07-12T04:25:41.174Z,17.53
2018-07-12T04:28:08.913Z,16.93
2018-07-12T04:30:36.598Z,16.33
2018-07-12T04:33:04.337Z,16.03
2018-07-12T04:35:32.033Z,14.97
2018-07-12T04:37:59.761Z,14.70
2018-07-12T04:40:27.457Z,14.10
2018-07-12T04:42:55.158Z,15.67
2018-07-12T04:45:22.861Z,14.80
2018-07-12T04:47:50.558Z,15.10
2018-07-12T04:50:18.255Z,14.43
2018-07-12T04:52:45.955Z,14.00
2018-07-12T04:55:13.647Z,13.53
2018-07-12T04:57:41.343Z,13.83
2018-07-12T05:00:09.039Z,13.23
2018-07-12T05:02:36.749Z,12.00
2018-07-12T05:05:04.441Z,12.93
2018-07-12T05:07:32.138Z,12.23
2018-07-12T05:09:59.877Z,12.57
2018-07-12T05:12:27.619Z,12.53
2018-07-12T05:14:55.313Z,12.57
2018-07-12T05:17:23.007Z,12.10
2018-07-12T05:19:50.707Z,11.40
2018-07-12T05:22:18.413Z,11.77
2018-07-12T05:24:46.107Z,11.20
2018-07-12T05:27:13.813Z,11.23
2018-07-12T05:29:42.123Z,10.87
2018-07-12T05:32:09.835Z,11.40
2018-07-12T05:34:37.528Z,10.53
2018-07-12T05:37:06.423Z,10.27
2018-07-12T05:39:35.442Z,9.47
2018-07-12T05:42:03.981Z,9.13
2018-07-12T05:44:32.550Z,9.17
2018-07-12T05:47:01.134Z,9.37
2018-07-12T05:49:30.237Z,8.77
2018-07-12T05:51:59.023Z,8.23
2018-07-12T05:54:28.004Z,9.77
2018-07-12T05:56:56.814Z,8.93
2018-07-12T05:59:25.647Z,8.50
2018-07-12T06:02:06.009Z,8.47
2018-07-12T06:04:34.826Z,9.47
2018-07-12T06:07:03.661Z,9.57
2018-07-12T06:09:32.554Z,9.40
2018-07-12T06:12:01.341Z,9.23
2018-07-12T06:14:30.159Z,9.80
2018-07-12T06:16:58.972Z,9.00
2018-07-12T06:19:27.779Z,8.90
2018-07-12T06:21:56.608Z,8.57
2018-07-12T06:24:25.430Z,8.30
2018-07-12T06:26:54.229Z,9.77
2018-07-12T06:29:23.048Z,9.27
2018-07-12T06:31:51.860Z,8.40
2018-07-12T06:34:20.699Z,8.27
2018-07-12T06:36:49.502Z,9.00
2018-07-12T06:39:18.342Z,9.13
2018-07-12T06:41:47.155Z,8.90
2018-07-12T06:44:16.153Z,9.23
2018-07-12T06:46:44.977Z,8.13
2018-07-12T06:49:14.043Z,8.70
2018-07-12T06:51:43.327Z,9.37
2018-07-12T06:54:12.151Z,8.83
2018-07-12T06:56:40.966Z,9.17
2018-07-12T06:59:09.783Z,9.80
2018-07-12T07:01:39.038Z,10.07
2018-07-12T07:04:07.849Z,10.97
2018-07-12T07:06:36.688Z,11.30
2018-07-12T07:09:07.636Z,10.83
2018-07-12T07:11:37.238Z,11.23
2018-07-12T07:14:06.149Z,11.70
2018-07-12T07:16:35.017Z,12.07
2018-07-12T07:19:03.892Z,13.93
2018-07-12T07:21:33.616Z,13.60
2018-07-12T07:24:02.444Z,13.83
2018-07-12T07:26:31.263Z,14.20
2018-07-12T07:29:00.097Z,13.67
2018-07-12T07:31:29.166Z,13.87
2018-07-12T07:33:57.984Z,13.50
2018-07-12T07:36:26.820Z,13.67
2018-07-12T07:38:55.652Z,15.20
2018-07-12T07:41:24.486Z,14.83
2018-07-12T07:43:53.299Z,15.63
2018-07-12T07:46:22.415Z,15.57
2018-07-12T07:48:51.240Z,15.30
2018-07-12T07:51:20.097Z,15.93
2018-07-12T07:53:48.911Z,16.73
2018-07-12T07:56:17.753Z,17.30
2018-07-12T07:58:46.576Z,17.57
2018-07-12T08:01:15.407Z,17.27
2018-07-12T08:03:44.233Z,17.93
2018-07-12T08:06:13.075Z,17.80
2018-07-12T08:08:42.105Z,18.20
2018-07-12T08:11:10.936Z,17.80
2018-07-12T08:13:39.754Z,17.50
2018-07-12T08:16:08.578Z,17.73
2018-07-12T08:18:37.419Z,17.47
2018-07-12T08:21:10.756Z,17.23
2018-07-12T08:23:39.581Z,16.87
2018-07-12T08:26:08.417Z,18.30
2018-07-12T08:28:37.227Z,18.57
2018-07-12T08:31:06.219Z,17.30
2018-07-12T08:33:34.995Z,17.20
2018-07-12T08:36:03.875Z,17.23
2018-07-12T08:38:32.691Z,16.47
2018-07-12T08:41:01.519Z,18.50
2018-07-12T08:43:30.782Z,18.17
2018-07-12T08:45:59.608Z,17.60
2018-07-12T08:48:28.522Z,18.63
2018-07-12T08:50:57.885Z,18.63
2018-07-12T08:53:26.718Z,18.00
2018-07-12T08:55:55.544Z,17.30
2018-07-12T08:58:24.385Z,16.37
2018-07-12T09:00:53.230Z,16.20
2018-07-12T09:03:22.036Z,16.57
2018-07-12T09:05:50.864Z,16.17
2018-07-12T09:08:19.698Z,15.27
2018-07-12T09:10:48.530Z,16.27
2018-07-12T09:13:17.370Z,16.23
2018-07-12T09:15:46.251Z,14.83
2018-07-12T09:18:15.033Z,14.60
2018-07-12T09:20:43.839Z,14.77
2018-07-12T09:23:12.663Z,13.93
2018-07-12T09:25:41.484Z,15.87
2018-07-12T09:28:10.305Z,15.43
2018-07-12T09:30:39.131Z,17.57
2018-07-12T09:33:08.694Z,16.07
2018-07-12T09:35:37.492Z,15.60
2018-07-12T09:38:16.496Z,15.93
2018-07-12T09:40:45.313Z,16.40
2018-07-12T09:43:14.147Z,15.97
2018-07-12T09:45:43.327Z,15.50
2018-07-12T09:48:12.147Z,14.50
2018-07-12T09:50:40.966Z,14.17
2018-07-12T09:53:09.788Z,14.37
2018-07-12T09:55:38.630Z,14.87
2018-07-12T09:58:19.029Z,14.37
2018-07-12T10:00:53.245Z,13.37
2018-07-12T10:03:22.213Z,14.47
2018-07-12T10:05:57.409Z,12.53
2018-07-12T10:08:31.610Z,10.83
2018-07-12T10:11:05.988Z,11.10
2018-07-12T10:13:40.432Z,12.10
2018-07-12T10:16:14.732Z,11.50
2018-07-12T10:18:43.564Z,11.10
2018-07-12T10:21:12.774Z,11.83
2018-07-12T10:23:41.562Z,13.40
2018-07-12T10:26:10.363Z,13.13
2018-07-12T10:28:39.201Z,13.30
2018-07-12T10:31:08.015Z,10.53
2018-07-12T10:33:36.824Z,9.30
2018-07-12T10:36:05.640Z,8.20
2018-07-12T10:38:34.443Z,7.70
2018-07-12T10:41:03.266Z,6.83
2018-07-12T10:43:32.073Z,7.10
2018-07-12T10:46:00.879Z,6.60
2018-07-12T10:48:29.671Z,5.87
2018-07-12T10:50:58.495Z,6.20
2018-07-12T10:53:27.307Z,7.43
2018-07-12T10:55:56.114Z,7.40
2018-07-12T10:58:24.933Z,7.70
2018-07-12T11:00:53.741Z,9.63
2018-07-12T11:03:22.580Z,9.23
2018-07-12T11:05:51.988Z,8.40
2018-07-12T11:08:20.816Z,7.70
2018-07-12T11:10:49.422Z,5.57
2018-07-12T11:13:22.616Z,5.43
2018-07-12T11:15:51.514Z,6.07
2018-07-12T11:18:20.261Z,5.40
2018-07-12T11:20:49.091Z,5.23
2018-07-12T11:23:17.893Z,5.07
2018-07-12T11:25:46.920Z,4.70
2018-07-12T11:28:15.790Z,5.43
2018-07-12T11:30:44.579Z,4.80
2018-07-12T11:33:48.665Z,5.80
2018-07-12T11:36:17.607Z,4.73
2018-07-12T11:38:46.843Z,4.57
2018-07-12T11:41:15.836Z,4.13
2018-07-12T11:43:44.675Z,5.20
2018-07-12T11:46:14.669Z,5.03
2018-07-12T11:48:44.144Z,5.63
2018-07-12T11:51:13.134Z,6.10
2018-07-12T11:53:41.949Z,6.17
2018-07-12T11:56:10.772Z,7.00
2018-07-12T11:58:39.575Z,7.77
2018-07-12T12:01:08.400Z,6.47
2018-07-12T12:03:37.207Z,6.77
2018-07-12T12:06:06.028Z,5.40
2018-07-12T12:08:34.844Z,5.30
2018-07-12T12:11:03.655Z,5.07
2018-07-12T12:13:32.672Z,5.40
2018-07-12T12:16:01.465Z,5.33
2018-07-12T12:18:30.474Z,4.90
2018-07-12T12:20:59.303Z,4.40
2018-07-12T12:23:28.087Z,4.50
2018-07-12T12:25:56.891Z,4.07
2018-07-12T12:28:25.708Z,4.50
2018-07-12T12:30:54.534Z,4.33
2018-07-12T12:33:23.354Z,4.03
2018-07-12T12:35:52.139Z,4.10
2018-07-12T12:38:20.944Z,4.10
2018-07-12T12:40:49.735Z,4.50
2018-07-12T12:43:18.556Z,4.60
2018-07-12T12:45:47.348Z,4.17
2018-07-12T12:48:16.177Z,4.20
2018-07-12T12:50:45.046Z,3.73
2018-07-12T12:53:13.801Z,3.57
2018-07-12T12:55:42.595Z,3.40
2018-07-12T12:58:11.411Z,3.17
2018-07-12T13:00:40.206Z,3.90
2018-07-12T13:03:09.031Z,3.57
2018-07-12T13:05:37.831Z,3.90
2018-07-12T13:08:06.681Z,3.20
2018-07-12T13:10:35.471Z,3.07
2018-07-12T13:13:04.309Z,3.63
2018-07-12T13:15:33.107Z,3.20
2018-07-12T13:18:01.923Z,2.80
2018-07-12T13:20:30.724Z,2.73
2018-07-12T13:22:59.564Z,2.97
2018-07-12T13:25:28.385Z,2.77
2018-07-12T13:27:57.195Z,3.00
2018-07-12T13:30:26.002Z,2.83
2018-07-12T13:32:54.805Z,2.73
2018-07-12T13:35:23.620Z,3.40
2018-07-12T13:37:52.431Z,3.70
2018-07-12T13:40:21.239Z,3.80
2018-07-12T13:42:50.058Z,4.10
2018-07-12T13:45:18.870Z,4.03
2018-07-12T13:47:47.703Z,3.67
2018-07-12T13:50:16.512Z,4.10
2018-07-12T13:52:45.332Z,3.90
2018-07-12T13:55:14.139Z,3.50
2018-07-12T13:57:42.951Z,3.27
2018-07-12T14:00:11.767Z,3.33
2018-07-12T14:02:40.584Z,3.00
2018-07-12T14:05:09.391Z,2.90
2018-07-12T14:07:38.244Z,3.10
2018-07-12T14:10:07.051Z,2.77
2018-07-12T14:12:35.859Z,3.03
2018-07-12T14:15:04.695Z,2.80
2018-07-12T14:17:33.496Z,2.90
2018-07-12T14:20:02.329Z,2.70
2018-07-12T14:22:31.191Z,2.50
2018-07-12T14:25:00.003Z,2.63
2018-07-12T14:27:28.807Z,2.60
2018-07-12T14:29:57.624Z,2.57
2018-07-12T14:32:26.432Z,2.33
2018-07-12T14:34:55.244Z,2.70
2018-07-12T14:37:24.047Z,2.57
2018-07-12T14:39:52.859Z,2.83
2018-07-12T14:42:21.671Z,2.63
2018-07-12T14:44:50.507Z,2.80
2018-07-12T14:47:19.323Z,3.13
2018-07-12T14:49:48.148Z,2.63
2018-07-12T14:52:16.765Z,2.60
2018-07-12T14:54:45.447Z,3.20
2018-07-12T14:57:14.256Z,2.97
2018-07-12T14:59:43.084Z,2.73
2018-07-12T15:02:11.945Z,2.50
2018-07-12T15:04:40.744Z,2.57
2018-07-12T15:07:09.569Z,2.23
2018-07-12T15:09:38.380Z,2.80
2018-07-12T15:12:07.721Z,2.57
2018-07-12T15:14:36.507Z,2.53
2018-07-12T15:17:05.410Z,2.93
2018-07-12T15:19:34.216Z,2.90
2018-07-12T15:22:03.023Z,2.93
2018-07-12T15:24:31.838Z,2.83
2018-07-12T15:27:00.683Z,2.50
2018-07-12T15:29:30.568Z,2.70
2018-07-12T15:31:59.333Z,2.63
2018-07-12T15:34:28.314Z,2.63
2018-07-12T15:36:57.138Z,2.60
2018-07-12T15:39:25.969Z,2.67
2018-07-12T15:41:54.774Z,2.57
2018-07-12T15:44:23.819Z,2.60
2018-07-12T15:46:52.607Z,2.97
2018-07-12T15:49:21.407Z,2.70
2018-07-12T15:51:50.779Z,2.80
2018-07-12T15:54:19.612Z,2.40
2018-07-12T15:56:48.419Z,2.60
2018-07-12T15:59:17.922Z,2.67
2018-07-12T16:01:46.828Z,2.50
2018-07-12T16:04:15.741Z,2.30
2018-07-12T16:06:44.534Z,2.27
2018-07-12T16:09:13.348Z,2.93
2018-07-12T16:11:42.051Z,2.80
2018-07-12T16:14:10.723Z,2.70
2018-07-12T16:16:39.585Z,2.73
2018-07-12T16:19:08.724Z,2.57
2018-07-12T16:21:37.591Z,2.40
2018-07-12T16:24:06.709Z,2.63
2018-07-12T16:26:35.837Z,2.53
2018-07-12T16:29:04.665Z,2.53
2018-07-12T16:31:33.504Z,2.60
2018-07-12T16:34:02.365Z,2.50
2018-07-12T16:36:31.943Z,2.53
2018-07-12T16:39:01.302Z,2.70
2018-07-12T16:41:30.091Z,2.90
2018-07-12T16:43:59.046Z,3.00
2018-07-12T16:46:27.954Z,2.63
2018-07-12T16:48:56.855Z,2.57
2018-07-12T16:51:25.648Z,2.87
2018-07-12T16:53:54.469Z,2.60
2018-07-12T16:56:23.271Z,2.63
2018-07-12T16:58:52.143Z,2.57
2018-07-12T17:01:20.956Z,2.90
2018-07-12T17:03:49.771Z,2.80
2018-07-12T17:06:18.575Z,2.77
2018-07-12T17:08:47.501Z,3.13
2018-07-12T17:11:16.724Z,2.90
2018-07-12T17:13:45.810Z,2.73
2018-07-12T17:16:14.611Z,2.90
2018-07-12T17:18:43.521Z,3.30
2018-07-12T17:21:12.315Z,3.43
2018-07-12T17:23:41.127Z,3.93
2018-07-12T17:26:10.001Z,3.77
2018-07-12T17:28:38.808Z,3.80
2018-07-12T17:31:07.603Z,3.60
2018-07-12T17:33:36.459Z,3.80
2018-07-12T17:36:05.052Z,4.10
2018-07-12T17:38:33.753Z,3.60
2018-07-12T17:41:02.580Z,4.00
2018-07-12T17:43:31.366Z,3.70
2018-07-12T17:46:01.156Z,3.73
2018-07-12T17:48:29.980Z,4.20
2018-07-12T17:50:58.797Z,4.00
2018-07-12T17:53:27.607Z,3.83
2018-07-12T17:55:56.422Z,4.03
2018-07-12T17:58:25.226Z,4.53
2018-07-12T18:00:54.049Z,3.57
2018-07-12T18:03:22.943Z,3.50
2018-07-12T18:05:51.795Z,3.80
2018-07-12T18:08:20.616Z,3.37
2018-07-12T18:10:49.417Z,3.83
2018-07-12T18:13:18.241Z,4.10
2018-07-12T18:15:47.053Z,3.70
2018-07-12T18:18:15.861Z,3.73
2018-07-12T18:20:44.655Z,4.13
2018-07-12T18:23:13.450Z,3.47
2018-07-12T18:25:42.272Z,4.07
2018-07-12T18:28:11.086Z,3.63
2018-07-12T18:30:39.912Z,3.70
2018-07-12T18:33:09.379Z,3.50
2018-07-12T18:35:39.303Z,3.13
2018-07-12T18:38:08.164Z,3.63
2018-07-12T18:40:36.980Z,3.30
2018-07-12T18:43:05.779Z,3.33
2018-07-12T18:45:34.588Z,3.50
2018-07-12T18:48:04.283Z,3.50
2018-07-12T18:50:33.087Z,3.50
2018-07-12T18:53:01.883Z,3.50
2018-07-12T18:55:30.708Z,3.30
2018-07-12T18:58:00.030Z,3.30
2018-07-12T19:00:29.088Z,3.43
2018-07-12T19:02:57.904Z,3.30
2018-07-12T19:05:26.720Z,3.60
2018-07-12T19:07:55.545Z,3.70
2018-07-12T19:10:24.359Z,3.63
2018-07-12T19:12:53.171Z,3.77
2018-07-12T19:15:22.053Z,4.03
2018-07-12T19:17:50.784Z,4.13
2018-07-12T19:20:19.647Z,3.30
2018-07-12T19:22:48.436Z,3.37
2018-07-12T19:25:17.262Z,3.60
2018-07-12T19:27:46.067Z,3.70
2018-07-12T19:30:14.696Z,3.50
2018-07-12T19:32:43.371Z,3.90
2018-07-12T19:35:12.232Z,3.63
2018-07-12T19:37:41.139Z,3.83
2018-07-12T19:40:10.431Z,3.63
2018-07-12T19:42:39.200Z,3.67
2018-07-12T19:45:08.019Z,4.00
2018-07-12T19:47:36.832Z,4.13
2018-07-12T19:50:05.677Z,3.83
2018-07-12T19:52:34.518Z,3.70
2018-07-12T19:55:03.328Z,4.30
2018-07-12T19:57:32.179Z,3.87
2018-07-12T20:00:00.959Z,3.70
2018-07-12T20:02:29.791Z,3.60
2018-07-12T20:04:58.590Z,3.60
2018-07-12T20:07:27.304Z,4.20
2018-07-12T20:09:55.971Z,3.97
2018-07-12T20:12:24.782Z,4.00
2018-07-12T20:14:53.592Z,3.67
2018-07-12T20:17:22.478Z,3.73
2018-07-12T20:19:51.259Z,3.90
2018-07-12T20:22:20.067Z,4.03
2018-07-12T20:24:49.010Z,4.00
2018-07-12T20:27:17.755Z,4.10
2018-07-12T20:29:46.551Z,4.43
2018-07-12T20:32:15.359Z,4.53
2018-07-12T20:34:44.467Z,4.00
2018-07-12T20:37:13.975Z,4.40
2018-07-12T20:39:43.472Z,4.17
2018-07-12T20:42:12.340Z,4.33
2018-07-12T20:44:41.100Z,4.40
2018-07-12T20:47:09.919Z,4.40
2018-07-12T20:49:38.851Z,4.73
2018-07-12T20:52:07.664Z,3.80
2018-07-12T20:54:36.511Z,4.20
2018-07-12T20:57:05.293Z,4.00
2018-07-12T20:59:34.088Z,4.33
2018-07-12T21:02:02.896Z,3.90
2018-07-12T21:04:31.821Z,4.80
2018-07-12T21:07:00.656Z,3.90
2018-07-12T21:09:29.459Z,4.47
2018-07-12T21:11:58.271Z,4.00
2018-07-12T21:14:27.100Z,4.20
2018-07-12T21:16:56.438Z,3.73
2018-07-12T21:19:25.279Z,4.03
2018-07-12T21:21:54.079Z,4.20
2018-07-12T21:24:22.896Z,3.70
2018-07-12T21:26:51.699Z,3.93
2018-07-12T21:29:20.524Z,4.03
2018-07-12T21:31:49.327Z,3.70
2018-07-12T21:34:18.137Z,4.10
2018-07-12T21:36:46.947Z,4.40
2018-07-12T21:39:15.772Z,4.23
2018-07-12T21:41:44.600Z,4.13
2018-07-12T21:44:13.524Z,4.20
2018-07-12T21:46:42.341Z,4.10
2018-07-12T21:49:11.176Z,4.50
2018-07-12T21:51:40.021Z,4.23
2018-07-12T21:54:08.798Z,4.40
2018-07-12T21:56:37.591Z,4.73
2018-07-12T21:59:06.552Z,4.93
2018-07-12T22:01:35.352Z,4.57
2018-07-12T22:04:04.176Z,4.30
2018-07-12T22:06:42.761Z,5.07
2018-07-12T22:09:11.579Z,4.47
2018-07-12T22:11:40.410Z,5.60
2018-07-12T22:14:09.217Z,5.70
2018-07-12T22:16:38.037Z,6.63
2018-07-12T22:19:06.865Z,6.83
2018-07-12T22:21:35.680Z,6.83
2018-07-12T22:24:04.685Z,6.50
2018-07-12T22:26:33.487Z,6.17
2018-07-12T22:29:02.306Z,7.07
2018-07-12T22:31:31.121Z,7.17
2018-07-12T22:33:59.945Z,7.27
2018-07-12T22:36:28.760Z,6.40
2018-07-12T22:38:57.584Z,6.73
2018-07-12T22:41:26.406Z,6.23
2018-07-12T22:43:55.196Z,6.67
2018-07-12T22:46:24.015Z,6.77
2018-07-12T22:48:52.845Z,6.83
2018-07-12T22:51:21.722Z,6.63
2018-07-12T22:53:50.548Z,7.67
2018-07-12T22:56:19.424Z,7.70
2018-07-12T22:58:48.248Z,7.40
2018-07-12T23:01:17.063Z,7.47
2018-07-12T23:03:45.871Z,7.30
2018-07-12T23:06:14.731Z,7.87
2018-07-12T23:08:43.559Z,7.70
2018-07-12T23:11:12.380Z,7.37
2018-07-12T23:13:41.184Z,8.10
2018-07-12T23:16:10.012Z,7.77
2018-07-12T23:18:38.828Z,7.40
2018-07-12T23:21:07.664Z,7.97
2018-07-12T23:23:36.470Z,8.27
2018-07-12T23:26:05.501Z,7.63
2018-07-12T23:28:34.338Z,7.57
2018-07-12T23:31:03.169Z,7.50
2018-07-12T23:33:31.976Z,7.37
2018-07-12T23:36:00.803Z,7.40
2018-07-12T23:38:29.623Z,7.60
2018-07-12T23:40:58.450Z,7.00
2018-07-12T23:43:27.255Z,7.47
2018-07-12T23:45:56.077Z,7.10
2018-07-12T23:48:24.883Z,7.43
2018-07-12T23:50:53.717Z,7.47
2018-07-12T23:53:22.543Z,7.83
2018-07-12T23:55:51.439Z,7.27
2018-07-12T23:58:20.284Z,7.27
